Time;durP1;ratioP1;P1;durP2;ratioP2;P2;SDS_P1;SDS_P2;PMS_P1;PMS_P2;Temp;Humidity;BMP_temperature;BMP_pressure;BME280_temperature;BME280_humidity;BME280_pressure;Samples;Min_cycle;Max_cycle;Signal;HPM_P1;HPM_P2
2021/11/01 00:00:25;;;;;;;;;;;;;;;15.36;79.22;99368.06;1049808;28;852;-70
2021/11/01 00:01:16;;;;;;;;;;;;;;;15.36;79.14;99362.69;1049789;28;618;-70
2021/11/01 00:02:07;;;;;;;;;;;;;;;15.36;79.20;99360.84;1049734;28;661;-70
2021/11/01 00:02:57;;;;;;;;;;;;;;;15.36;79.61;99371.59;1049775;28;783;-71
2021/11/01 00:03:47;;;;;;;;;;;;;;;15.36;79.06;99365.38;1049907;28;761;-71
2021/11/01 00:04:40;;;;;;;;;;;;;;;15.35;79.29;99367.22;1049789;28;733;-71
2021/11/01 00:05:30;;;;;;;;;;;;;;;15.35;79.52;99363.69;1049841;28;805;-70
2021/11/01 00:06:21;;;;;;;;;;;;;;;15.34;79.44;99373.59;1049624;28;680;-70
2021/11/01 00:07:13;;;;;;;;;;;;;;;15.34;79.21;99376.28;1049711;28;597;-70
2021/11/01 00:08:03;;;;;;;;;;;;;;;15.34;79.32;99373.59;1049868;28;772;-70
2021/11/01 00:08:54;;;;;;;;;;;;;;;15.34;79.38;99368.22;1050746;28;838;-70
2021/11/01 00:09:44;;;;;;;;;;;;;;;15.33;79.46;99371.91;1049884;28;715;-70
2021/11/01 00:10:35;;;;;;;;;;;;;;;15.34;79.72;99375.44;1048893;28;2044;-70
2021/11/01 00:11:25;;;;;;;;;;;;;;;15.34;79.45;99378.97;1049039;28;618;-70
2021/11/01 00:12:15;;;;;;;;;;;;;;;15.33;79.41;99371.91;1049216;28;641;-70
2021/11/01 00:13:06;;;;;;;;;;;;;;;15.32;79.42;99370.25;1049158;28;842;-70
2021/11/01 00:13:56;;;;;;;;;;;;;;;15.32;79.38;99366.72;1049222;28;762;-70
2021/11/01 00:14:47;;;;;;;;;;;;;;;15.33;79.62;99369.22;1048619;28;1845;-71
2021/11/01 00:15:37;;;;;;;;;;;;;;;15.32;79.10;99370.25;1049781;28;810;-71
2021/11/01 00:16:29;;;;;;;;;;;;;;;15.32;79.47;99367.56;1050851;28;743;-70
2021/11/01 00:17:19;;;;;;;;;;;;;;;15.33;79.45;99371.91;1049820;28;960;-70
2021/11/01 00:18:10;;;;;;;;;;;;;;;15.33;79.71;99366.56;1049880;28;685;-70
2021/11/01 00:19:00;;;;;;;;;;;;;;;15.32;79.31;99362.19;1049570;28;1475;-70
2021/11/01 00:19:51;;;;;;;;;;;;;;;15.32;79.59;99359.50;1050806;28;712;-70
2021/11/01 00:20:41;;;;;;;;;;;;;;;15.31;79.38;99355.13;1046511;28;719;-70
2021/11/01 00:21:31;;;;;;;;;;;;;;;15.31;79.74;99355.13;1046530;28;720;-70
2021/11/01 00:22:22;;;;;;;;;;;;;;;15.31;79.06;99356.97;1050775;28;821;-72
2021/11/01 00:23:12;;;;;;;;;;;;;;;15.31;79.19;99365.03;1049630;28;933;-72
2021/11/01 00:24:03;;;;;;;;;;;;;;;15.32;79.34;99358.66;1050862;28;711;-71
2021/11/01 00:24:53;;;;;;;;;;;;;;;15.31;79.52;99363.19;1049742;28;740;-72
2021/11/01 00:25:44;;;;;;;;;;;;;;;15.31;79.32;99357.81;1049724;28;702;-72
2021/11/01 00:26:35;;;;;;;;;;;;;;;15.31;79.57;99362.34;1049687;28;809;-71
2021/11/01 00:27:25;;;;;;;;;;;;;;;15.31;79.43;99365.88;1049598;28;842;-71
2021/11/01 00:28:15;;;;;;;;;;;;;;;15.31;79.25;99368.56;1049826;28;741;-71
2021/11/01 00:29:06;;;;;;;;;;;;;;;15.31;79.52;99370.41;1050311;28;795;-72
2021/11/01 00:29:56;;;;;;;;;;;;;;;15.30;79.24;99369.56;1049466;28;1844;-71
2021/11/01 00:30:47;;;;;;;;;;;;;;;15.32;79.19;99370.25;1046466;28;732;-71
2021/11/01 00:31:37;;;;;;;;;;;;;;;15.31;79.57;99367.72;1049308;28;920;-71
2021/11/01 00:32:28;;;;;;;;;;;;;;;15.30;79.52;99372.25;1053304;28;800;-71
2021/11/01 00:33:18;;;;;;;;;;;;;;;15.30;79.75;99374.94;1053156;28;785;-71
2021/11/01 00:34:09;;;;;;;;;;;;;;;15.29;79.54;99373.25;1053183;28;1024;-71
2021/11/01 00:34:59;;;;;;;;;;;;;;;15.29;79.54;99371.41;1053211;28;733;-71
2021/11/01 00:35:50;;;;;;;;;;;;;;;15.31;79.71;99378.44;1053377;28;925;-71
2021/11/01 00:36:40;;;;;;;;;;;;;;;15.29;79.77;99371.41;1053127;28;1250;-71
2021/11/01 00:37:30;;;;;;;;;;;;;;;15.29;79.67;99370.56;1053301;28;729;-70
2021/11/01 00:38:21;;;;;;;;;;;;;;;15.30;79.39;99380.28;1053460;28;661;-70
2021/11/01 00:39:11;;;;;;;;;;;;;;;15.29;79.27;99373.25;1053219;28;1886;-70
2021/11/01 00:40:02;;;;;;;;;;;;;;;15.29;79.81;99371.41;1053312;28;832;-71
2021/11/01 00:40:53;;;;;;;;;;;;;;;15.29;79.60;99375.94;1053390;28;728;-71
2021/11/01 00:41:43;;;;;;;;;;;;;;;15.28;79.27;99363.50;1052575;28;1573;-71
2021/11/01 00:42:33;;;;;;;;;;;;;;;15.29;79.30;99374.09;1048993;28;707;-72
2021/11/01 00:43:24;;;;;;;;;;;;;;;15.29;79.59;99371.41;1049062;28;769;-73
2021/11/01 00:44:14;;;;;;;;;;;;;;;15.29;79.13;99370.56;1049561;28;851;-73
2021/11/01 00:45:05;;;;;;;;;;;;;;;15.29;79.86;99368.72;1045840;28;724;-73
2021/11/01 00:45:55;;;;;;;;;;;;;;;15.28;79.57;99363.50;1045215;28;704;-73
2021/11/01 00:46:45;;;;;;;;;;;;;;;15.28;79.71;99368.88;1050097;28;773;-72
2021/11/01 00:47:36;;;;;;;;;;;;;;;15.28;79.09;99368.88;1049113;28;822;-72
2021/11/01 00:48:26;;;;;;;;;;;;;;;15.27;79.32;99361.84;1049539;28;933;-72
2021/11/01 00:49:17;;;;;;;;;;;;;;;15.27;79.77;99368.03;1048990;28;1000;-71
2021/11/01 00:50:07;;;;;;;;;;;;;;;15.28;79.70;99371.56;1048945;28;764;-71
2021/11/01 00:50:58;;;;;;;;;;;;;;;15.27;79.72;99367.19;1049654;28;782;-72
2021/11/01 00:51:49;;;;;;;;;;;;;;;15.25;79.32;99372.72;1049592;28;738;-72
2021/11/01 00:52:39;;;;;;;;;;;;;;;15.26;79.50;99376.25;1049347;28;765;-72
2021/11/01 00:53:34;;;;;;;;;;;;;;;15.26;79.49;99376.25;1049163;28;816;-72
2021/11/01 00:54:24;;;;;;;;;;;;;;;15.26;79.16;99370.88;1049586;28;851;-71
2021/11/01 00:55:22;;;;;;;;;;;;;;;15.26;79.10;99370.88;1049590;28;699;-71
2021/11/01 00:56:13;;;;;;;;;;;;;;;15.25;79.41;99375.41;1049473;28;665;-72
2021/11/01 00:57:03;;;;;;;;;;;;;;;15.27;79.72;99367.19;1048984;28;633;-70
2021/11/01 00:57:54;;;;;;;;;;;;;;;15.26;79.19;99368.22;1049297;28;1953;-71
2021/11/01 00:58:44;;;;;;;;;;;;;;;15.25;79.97;99369.22;1049519;28;738;-71
2021/11/01 00:59:35;;;;;;;;;;;;;;;15.25;79.15;99377.25;1049509;28;1949;-72
2021/11/01 01:00:26;;;;;;;;;;;;;;;15.26;79.40;99370.88;1049484;28;652;-72
2021/11/01 01:01:17;;;;;;;;;;;;;;;15.26;79.86;99362.84;1049010;28;685;-72
2021/11/01 01:02:07;;;;;;;;;;;;;;;15.26;79.39;99365.53;1049450;28;726;-72
2021/11/01 01:02:58;;;;;;;;;;;;;;;15.25;79.18;99369.22;1049658;28;914;-72
2021/11/01 01:03:49;;;;;;;;;;;;;;;15.26;79.32;99366.38;1049648;28;807;-71
2021/11/01 01:04:39;;;;;;;;;;;;;;;15.26;79.09;99363.69;1049538;28;788;-70
2021/11/01 01:05:30;;;;;;;;;;;;;;;15.27;79.27;99364.53;1046202;28;733;-70
2021/11/01 01:06:20;;;;;;;;;;;;;;;15.25;79.64;99369.22;1045344;28;1976;-70
2021/11/01 01:07:10;;;;;;;;;;;;;;;15.25;79.23;99359.31;1050387;28;731;-70
2021/11/01 01:08:01;;;;;;;;;;;;;;;15.25;79.51;99358.47;1049677;28;657;-70
2021/11/01 01:08:51;;;;;;;;;;;;;;;15.25;79.28;99359.31;1049547;28;717;-71
2021/11/01 01:09:42;;;;;;;;;;;;;;;15.24;79.27;99352.28;1049569;28;703;-71
2021/11/01 01:10:32;;;;;;;;;;;;;;;15.24;79.59;99349.59;1049533;28;738;-70
2021/11/01 01:11:24;;;;;;;;;;;;;;;15.24;79.60;99354.09;1050105;28;841;-70
2021/11/01 01:12:14;;;;;;;;;;;;;;;15.24;79.59;99354.09;1048892;28;680;-71
2021/11/01 01:13:05;;;;;;;;;;;;;;;15.23;79.35;99349.75;1049573;28;677;-72
2021/11/01 01:13:57;;;;;;;;;;;;;;;15.23;79.09;99345.22;1049495;28;717;-72
2021/11/01 01:14:55;;;;;;;;;;;;;;;15.22;79.16;99348.09;1049524;28;736;-70
2021/11/01 01:15:56;;;;;;;;;;;;;;;15.23;79.20;99347.06;1049983;28;790;-71
2021/11/01 01:16:47;;;;;;;;;;;;;;;15.23;79.34;99339.00;1049417;28;769;-71
2021/11/01 01:17:39;;;;;;;;;;;;;;;15.22;79.13;99343.56;1049350;28;885;-72
2021/11/01 01:18:33;;;;;;;;;;;;;;;15.23;79.71;99342.53;1049504;28;748;-70
2021/11/01 01:19:30;;;;;;;;;;;;;;;15.24;79.77;99343.38;1049254;28;1976;-70
2021/11/01 01:20:21;;;;;;;;;;;;;;;15.23;79.46;99345.22;1049424;28;629;-70
2021/11/01 01:22:29;;;;;;;;;;;;;;;15.23;79.17;99341.69;1040815;28;904;-70
2021/11/01 01:23:19;;;;;;;;;;;;;;;15.23;79.09;99353.28;1050078;28;686;-71
2021/11/01 01:24:10;;;;;;;;;;;;;;;15.23;79.22;99344.38;1049623;28;790;-71
2021/11/01 01:25:03;;;;;;;;;;;;;;;15.23;79.51;99339.00;1049584;28;735;-71
2021/11/01 01:25:55;;;;;;;;;;;;;;;15.23;79.53;99341.69;1048561;28;1863;-71
2021/11/01 01:26:45;;;;;;;;;;;;;;;15.22;79.69;99340.88;1041450;28;838;-71
2021/11/01 01:27:35;;;;;;;;;;;;;;;15.22;79.57;99338.19;1045331;28;672;-71
2021/11/01 01:28:26;;;;;;;;;;;;;;;15.23;79.68;99347.06;1045783;28;669;-70
2021/11/01 01:29:16;;;;;;;;;;;;;;;15.22;79.61;99346.25;1041399;28;622;-71
2021/11/01 01:30:07;;;;;;;;;;;;;;;15.22;79.64;99356.16;1041424;28;878;-71
2021/11/01 01:30:57;;;;;;;;;;;;;;;15.21;79.21;99347.25;1044890;28;823;-70
2021/11/01 01:31:48;;;;;;;;;;;;;;;15.22;79.64;99348.09;1045585;28;706;-70
2021/11/01 01:32:38;;;;;;;;;;;;;;;15.21;79.52;99352.63;1045862;28;868;-70
2021/11/01 01:33:29;;;;;;;;;;;;;;;15.22;79.30;99348.09;1046470;28;740;-70
2021/11/01 01:34:19;;;;;;;;;;;;;;;15.22;79.45;99342.72;1046346;28;1184;-70
2021/11/01 01:35:09;;;;;;;;;;;;;;;15.21;79.38;99338.38;1045963;28;740;-70
2021/11/01 01:36:00;;;;;;;;;;;;;;;15.21;79.65;99346.41;1041961;28;774;-70
2021/11/01 01:36:50;;;;;;;;;;;;;;;15.20;79.33;99334.84;1041426;28;745;-70
2021/11/01 01:37:41;;;;;;;;;;;;;;;15.20;79.40;99336.69;1045849;28;691;-70
2021/11/01 01:38:31;;;;;;;;;;;;;;;15.20;79.47;99337.53;1046418;28;941;-70
2021/11/01 01:39:22;;;;;;;;;;;;;;;15.20;79.05;99331.31;1046371;28;1898;-70
2021/11/01 01:40:15;;;;;;;;;;;;;;;15.21;79.62;99333.00;1046498;28;664;-71
2021/11/01 01:41:06;;;;;;;;;;;;;;;15.20;79.41;99334.84;1041470;28;681;-71
2021/11/01 01:41:56;;;;;;;;;;;;;;;15.20;79.50;99334.00;1042744;28;1694;-72
2021/11/01 01:42:47;;;;;;;;;;;;;;;15.19;79.21;99333.16;1047965;28;932;-70
2021/11/01 01:43:37;;;;;;;;;;;;;;;15.18;79.13;99331.47;1049992;28;762;-69
2021/11/01 01:44:27;;;;;;;;;;;;;;;15.19;79.36;99332.31;1048846;28;730;-71
2021/11/01 01:45:18;;;;;;;;;;;;;;;15.18;79.76;99328.81;1049002;28;712;-70
2021/11/01 01:46:08;;;;;;;;;;;;;;;15.19;79.59;99330.47;1048772;28;649;-71
2021/11/01 01:46:59;;;;;;;;;;;;;;;15.19;79.32;99326.97;1048788;28;989;-71
2021/11/01 01:47:49;;;;;;;;;;;;;;;15.20;79.59;99328.63;1045569;28;742;-71
2021/11/01 01:48:39;;;;;;;;;;;;;;;15.20;79.17;99332.16;1045014;28;768;-71
2021/11/01 01:49:30;;;;;;;;;;;;;;;15.20;79.07;99329.47;1049317;28;681;-72
2021/11/01 01:50:21;;;;;;;;;;;;;;;15.20;79.02;99334.00;1045031;28;728;-72
2021/11/01 01:51:13;;;;;;;;;;;;;;;15.20;79.20;99328.63;1044964;28;849;-73
2021/11/01 01:52:04;;;;;;;;;;;;;;;15.19;79.46;99321.59;1045584;28;685;-72
2021/11/01 01:52:54;;;;;;;;;;;;;;;15.19;79.62;99324.28;1049929;28;932;-71
2021/11/01 01:53:45;;;;;;;;;;;;;;;15.18;79.49;99328.81;1049420;28;778;-71
2021/11/01 01:54:35;;;;;;;;;;;;;;;15.18;79.15;99326.13;1049118;28;684;-69
2021/11/01 01:55:26;;;;;;;;;;;;;;;15.19;79.27;99326.97;1049374;28;1307;-68
2021/11/01 01:56:16;;;;;;;;;;;;;;;15.18;79.36;99326.13;1049568;28;618;-68
2021/11/01 01:57:06;;;;;;;;;;;;;;;15.18;79.30;99327.97;1049412;28;715;-68
2021/11/01 01:57:57;;;;;;;;;;;;;;;15.17;79.59;99319.06;1049873;28;759;-68
2021/11/01 01:58:50;;;;;;;;;;;;;;;15.18;79.59;99330.66;1049307;28;694;-68
2021/11/01 01:59:41;;;;;;;;;;;;;;;15.18;79.14;99319.91;1049249;28;1957;-68
2021/11/01 02:01:37;;;;;;;;;;;;;;;15.17;79.59;99323.59;1050459;28;837;-68
2021/11/01 02:02:28;;;;;;;;;;;;;;;15.17;79.22;99320.91;1050505;28;637;-68
2021/11/01 02:03:19;;;;;;;;;;;;;;;15.17;79.64;99320.91;1049375;28;916;-69
2021/11/01 02:04:09;;;;;;;;;;;;;;;15.17;79.76;99318.22;1049265;28;1132;-68
2021/11/01 02:05:00;;;;;;;;;;;;;;;15.16;79.57;99317.38;1046021;28;683;-68
2021/11/01 02:05:50;;;;;;;;;;;;;;;15.17;79.26;99312.88;1045920;28;814;-68
2021/11/01 02:06:42;;;;;;;;;;;;;;;15.16;79.61;99317.38;1050458;28;617;-67
2021/11/01 02:07:33;;;;;;;;;;;;;;;15.17;79.22;99312.88;1049297;28;887;-68
2021/11/01 02:08:23;;;;;;;;;;;;;;;15.15;79.41;99314.88;1049285;28;716;-69
2021/11/01 02:09:14;;;;;;;;;;;;;;;15.15;79.58;99313.03;1045973;28;661;-69
2021/11/01 02:10:04;;;;;;;;;;;;;;;15.14;79.60;99308.66;1044908;28;783;-69
2021/11/01 02:10:55;;;;;;;;;;;;;;;15.16;79.25;99308.50;1049269;28;540;-70
2021/11/01 02:11:45;;;;;;;;;;;;;;;15.15;79.23;99304.13;1049204;28;740;-70
2021/11/01 02:12:35;;;;;;;;;;;;;;;15.15;79.23;99301.44;1045889;28;804;-69
2021/11/01 02:13:26;;;;;;;;;;;;;;;15.15;79.25;99309.50;1046106;28;645;-70
2021/11/01 02:14:16;;;;;;;;;;;;;;;15.15;79.44;99312.19;1050405;28;641;-70
2021/11/01 02:15:07;;;;;;;;;;;;;;;15.15;79.23;99309.50;1049043;28;1646;-69
2021/11/01 02:15:57;;;;;;;;;;;;;;;15.15;79.32;99309.50;1049211;28;764;-69
2021/11/01 02:16:48;;;;;;;;;;;;;;;15.15;79.43;99310.34;1045970;28;644;-69
2021/11/01 02:17:38;;;;;;;;;;;;;;;15.14;79.68;99308.66;1046052;28;748;-70
2021/11/01 02:18:29;;;;;;;;;;;;;;;15.14;79.64;99300.63;1050407;28;699;-70
2021/11/01 02:19:20;;;;;;;;;;;;;;;15.13;79.03;99293.56;1049159;28;1968;-70
2021/11/01 02:20:10;;;;;;;;;;;;;;;15.14;79.21;99297.09;1049241;28;1156;-70
2021/11/01 02:21:02;;;;;;;;;;;;;;;15.14;79.54;99299.78;1049366;28;697;-70
2021/11/01 02:21:53;;;;;;;;;;;;;;;15.13;79.47;99295.41;1049242;28;630;-70
2021/11/01 02:22:43;;;;;;;;;;;;;;;15.14;79.79;99291.72;1049277;28;792;-70
2021/11/01 02:23:33;;;;;;;;;;;;;;;15.12;79.44;99299.94;1049214;28;642;-71
2021/11/01 02:24:24;;;;;;;;;;;;;;;15.13;79.19;99292.72;1050411;28;737;-69
2021/11/01 02:25:14;;;;;;;;;;;;;;;15.12;79.45;99293.72;1049212;28;716;-69
2021/11/01 02:26:05;;;;;;;;;;;;;;;15.13;78.92;99292.72;1049448;28;692;-70
2021/11/01 02:26:56;;;;;;;;;;;;;;;15.13;79.34;99295.41;1049248;28;630;-70
2021/11/01 02:27:46;;;;;;;;;;;;;;;15.13;79.28;99290.03;1049401;28;629;-70
2021/11/01 02:28:36;;;;;;;;;;;;;;;15.14;79.18;99297.09;1049154;28;838;-70
2021/11/01 02:29:29;;;;;;;;;;;;;;;15.14;79.45;99286.34;1049351;28;805;-70
2021/11/01 02:30:19;;;;;;;;;;;;;;;15.13;79.76;99287.34;1049323;28;646;-70
2021/11/01 02:31:09;;;;;;;;;;;;;;;15.13;79.11;99287.34;1049261;28;711;-71
2021/11/01 02:32:00;;;;;;;;;;;;;;;15.12;79.19;99289.22;1050318;28;785;-70
2021/11/01 02:32:50;;;;;;;;;;;;;;;15.12;79.29;99288.38;1049197;28;921;-70
2021/11/01 02:33:41;;;;;;;;;;;;;;;15.11;79.27;99275.94;1049279;28;739;-70
2021/11/01 02:34:31;;;;;;;;;;;;;;;15.12;79.56;99281.16;1049688;28;783;-70
2021/11/01 02:35:21;;;;;;;;;;;;;;;15.12;79.50;99283.00;1050468;28;763;-70
2021/11/01 02:36:12;;;;;;;;;;;;;;;15.12;79.73;99280.31;1050156;28;817;-71
2021/11/01 02:37:02;;;;;;;;;;;;;;;15.12;79.56;99277.63;1045628;28;886;-71
2021/11/01 02:37:53;;;;;;;;;;;;;;;15.11;79.53;99286.69;1045629;28;1876;-72
2021/11/01 02:38:44;;;;;;;;;;;;;;;15.12;79.64;99285.69;1050351;28;766;-72
2021/11/01 02:39:35;;;;;;;;;;;;;;;15.11;79.41;99281.31;1049109;28;1973;-72
2021/11/01 02:40:26;;;;;;;;;;;;;;;15.11;79.63;99281.31;1049279;28;629;-72
2021/11/01 02:41:16;;;;;;;;;;;;;;;15.12;79.71;99288.38;1050190;28;812;-71
2021/11/01 02:42:07;;;;;;;;;;;;;;;15.10;79.42;99291.22;1050175;28;697;-71
2021/11/01 02:42:57;;;;;;;;;;;;;;;15.11;79.22;99284.00;1049960;28;790;-71
2021/11/01 02:43:48;;;;;;;;;;;;;;;15.10;79.24;99288.53;1050235;28;748;-71
2021/11/01 02:44:38;;;;;;;;;;;;;;;15.10;79.72;99290.38;1050038;28;715;-72
2021/11/01 02:45:29;;;;;;;;;;;;;;;15.11;79.23;99297.41;1050127;28;801;-72
2021/11/01 02:46:19;;;;;;;;;;;;;;;15.11;79.65;99292.06;1050210;28;713;-71
2021/11/01 02:47:10;;;;;;;;;;;;;;;15.10;79.12;99291.22;1049964;28;813;-71
2021/11/01 02:48:00;;;;;;;;;;;;;;;15.10;79.19;99290.38;1050126;28;625;-72
2021/11/01 02:48:51;;;;;;;;;;;;;;;15.11;79.48;99292.06;1051251;28;1023;-72
2021/11/01 02:49:41;;;;;;;;;;;;;;;15.09;79.37;99288.69;1049970;28;806;-72
2021/11/01 02:50:33;;;;;;;;;;;;;;;15.09;79.06;99294.06;1046697;28;706;-72
2021/11/01 02:51:23;;;;;;;;;;;;;;;15.09;79.08;99294.06;1046735;28;887;-71
2021/11/01 02:52:13;;;;;;;;;;;;;;;15.09;79.62;99294.91;1050815;28;640;-71
2021/11/01 02:53:04;;;;;;;;;;;;;;;15.11;79.51;99302.78;1050119;28;657;-70
2021/11/01 02:53:54;;;;;;;;;;;;;;;15.10;79.47;99309.16;1050075;28;702;-71
2021/11/01 02:54:45;;;;;;;;;;;;;;;15.09;79.30;99300.25;1050141;28;724;-71
2021/11/01 02:55:36;;;;;;;;;;;;;;;15.10;79.49;99295.75;1049967;28;938;-71
2021/11/01 02:56:26;;;;;;;;;;;;;;;15.10;79.08;99295.75;1050023;28;825;-71
2021/11/01 02:57:16;;;;;;;;;;;;;;;15.09;79.66;99294.91;1051296;28;617;-71
2021/11/01 02:58:07;;;;;;;;;;;;;;;15.09;79.52;99288.69;1050097;28;855;-71
2021/11/01 02:58:57;;;;;;;;;;;;;;;15.09;79.46;99294.06;1050048;28;642;-70
2021/11/01 02:59:48;;;;;;;;;;;;;;;15.08;79.08;99292.38;1050060;28;748;-70
2021/11/01 03:00:38;;;;;;;;;;;;;;;15.08;79.25;99292.38;1046814;28;784;-71
2021/11/01 03:01:30;;;;;;;;;;;;;;;15.10;79.53;99303.78;1046678;28;757;-70
2021/11/01 03:02:20;;;;;;;;;;;;;;;15.10;79.61;99301.09;1045702;28;841;-70
2021/11/01 03:03:10;;;;;;;;;;;;;;;15.08;79.53;99303.94;1046678;28;629;-70
2021/11/01 03:04:01;;;;;;;;;;;;;;;15.08;79.25;99303.13;1050535;28;914;-69
2021/11/01 03:04:52;;;;;;;;;;;;;;;15.08;79.28;99297.75;1049898;28;837;-69
2021/11/01 03:05:42;;;;;;;;;;;;;;;15.08;79.61;99303.13;1050082;28;782;-69
2021/11/01 03:06:33;;;;;;;;;;;;;;;15.08;79.50;99306.63;1045909;28;637;-69
2021/11/01 03:07:23;;;;;;;;;;;;;;;15.08;79.08;99306.63;1046493;28;624;-69
2021/11/01 03:08:13;;;;;;;;;;;;;;;15.07;79.03;99307.63;1046947;28;1964;-69
2021/11/01 03:09:04;;;;;;;;;;;;;;;15.07;79.40;99302.28;1046793;28;788;-69
2021/11/01 03:09:54;;;;;;;;;;;;;;;15.06;79.21;99305.97;1041084;28;772;-69
2021/11/01 03:10:45;;;;;;;;;;;;;;;15.07;79.24;99301.44;1041970;28;715;-68
2021/11/01 03:11:35;;;;;;;;;;;;;;;15.07;79.18;99304.13;1046317;28;728;-70
2021/11/01 03:12:26;;;;;;;;;;;;;;;15.06;79.09;99303.28;1046314;28;855;-71
2021/11/01 03:13:16;;;;;;;;;;;;;;;15.06;79.21;99297.91;1045896;28;634;-70
2021/11/01 03:14:07;;;;;;;;;;;;;;;15.07;79.57;99301.44;1046036;28;716;-71
2021/11/01 03:14:58;;;;;;;;;;;;;;;15.07;79.18;99296.06;1041561;28;689;-69
2021/11/01 03:15:52;;;;;;;;;;;;;;;15.08;79.67;99295.06;1043129;28;812;-69
2021/11/01 03:16:42;;;;;;;;;;;;;;;15.07;79.33;99301.44;1045791;28;943;-70
2021/11/01 03:17:32;;;;;;;;;;;;;;;15.06;79.02;99299.75;1046247;28;804;-70
2021/11/01 03:18:23;;;;;;;;;;;;;;;15.05;79.21;99304.28;1041468;28;924;-70
2021/11/01 03:19:18;;;;;;;;;;;;;;;15.05;79.16;99295.41;1041718;28;1225;-70
2021/11/01 03:20:09;;;;;;;;;;;;;;;15.03;79.55;99300.94;1046379;28;724;-69
2021/11/01 03:21:00;;;;;;;;;;;;;;;15.04;79.14;99302.63;1048058;28;1792;-70
2021/11/01 03:21:50;;;;;;;;;;;;;;;15.04;79.53;99301.78;1050639;28;808;-70
2021/11/01 03:22:41;;;;;;;;;;;;;;;15.04;79.09;99286.53;1049921;28;706;-70
2021/11/01 03:23:33;;;;;;;;;;;;;;;15.04;79.15;99299.94;1050555;28;692;-70
2021/11/01 03:24:23;;;;;;;;;;;;;;;15.05;79.45;99298.09;1049898;28;728;-69
2021/11/01 03:25:15;;;;;;;;;;;;;;;15.04;79.52;99291.06;1050602;28;685;-69
2021/11/01 03:26:06;;;;;;;;;;;;;;;15.04;79.10;99299.09;1046510;28;727;-70
2021/11/01 03:26:56;;;;;;;;;;;;;;;15.05;79.20;99300.78;1049687;28;834;-70
2021/11/01 03:27:47;;;;;;;;;;;;;;;15.04;79.13;99293.75;1053483;28;757;-70
2021/11/01 03:28:37;;;;;;;;;;;;;;;15.03;79.44;99300.09;1054000;28;751;-70
2021/11/01 03:29:28;;;;;;;;;;;;;;;15.03;79.63;99290.22;1053502;28;719;-69
2021/11/01 03:30:18;;;;;;;;;;;;;;;15.03;79.15;99300.09;1053751;28;697;-69
2021/11/01 03:31:09;;;;;;;;;;;;;;;15.03;79.17;99284.84;1049032;28;843;-69
2021/11/01 03:31:59;;;;;;;;;;;;;;;15.02;79.58;99288.53;1049664;28;653;-69
2021/11/01 03:32:49;;;;;;;;;;;;;;;15.03;78.94;99292.91;1046467;28;777;-69
2021/11/01 03:33:41;;;;;;;;;;;;;;;15.03;79.02;99289.38;1045421;28;695;-70
2021/11/01 03:34:31;;;;;;;;;;;;;;;15.03;79.02;99306.31;1049418;28;672;-70
2021/11/01 03:35:22;;;;;;;;;;;;;;;15.03;79.48;99300.94;1049825;28;941;-70
2021/11/01 03:36:14;;;;;;;;;;;;;;;15.04;79.01;99307.16;1049526;28;1788;-70
2021/11/01 03:37:10;;;;;;;;;;;;;;;15.04;79.74;99305.31;1049811;28;661;-70
2021/11/01 03:38:01;;;;;;;;;;;;;;;15.04;79.37;99307.16;1049936;28;654;-70
2021/11/01 03:38:52;;;;;;;;;;;;;;;15.03;79.44;99303.63;1049821;28;796;-70
2021/11/01 03:39:44;;;;;;;;;;;;;;;15.03;79.58;99306.31;1049829;28;1972;-70
2021/11/01 03:40:36;;;;;;;;;;;;;;;15.02;79.16;99295.75;1049557;28;1861;-70
2021/11/01 03:41:27;;;;;;;;;;;;;;;15.03;79.22;99305.47;1049811;28;913;-69
2021/11/01 03:42:18;;;;;;;;;;;;;;;15.01;79.13;99299.44;1046350;28;641;-70
2021/11/01 03:43:08;;;;;;;;;;;;;;;15.01;79.67;99300.28;1046897;28;785;-70
2021/11/01 03:44:03;;;;;;;;;;;;;;;15.00;79.51;99301.28;1045777;28;649;-69
2021/11/01 03:44:59;;;;;;;;;;;;;;;15.00;79.44;99295.06;1047336;28;747;-70
2021/11/01 03:45:50;;;;;;;;;;;;;;;15.01;79.55;99297.59;1045626;28;827;-70
2021/11/01 03:46:44;;;;;;;;;;;;;;;15.02;79.07;99306.47;1045653;28;763;-70
2021/11/01 03:47:38;;;;;;;;;;;;;;;15.01;79.35;99308.31;1045769;28;842;-70
2021/11/01 03:48:34;;;;;;;;;;;;;;;15.02;79.11;99306.47;1045676;28;720;-70
2021/11/01 03:49:25;;;;;;;;;;;;;;;15.01;79.55;99312.84;1045711;28;668;-71
2021/11/01 03:52:28;;;;;;;;;;;;;;;15.00;78.99;99313.84;1046851;28;1138;-73
2021/11/01 03:53:18;;;;;;;;;;;;;;;15.01;79.45;99308.31;1047224;28;793;-72
2021/11/01 03:54:08;;;;;;;;;;;;;;;15.00;79.04;99309.31;1042969;28;765;-72
2021/11/01 03:54:59;;;;;;;;;;;;;;;15.01;79.08;99304.78;1042412;28;689;-71
2021/11/01 03:55:49;;;;;;;;;;;;;;;15.00;79.08;99300.44;1046799;28;785;-72
2021/11/01 03:56:41;;;;;;;;;;;;;;;15.00;79.54;99297.75;1045650;28;723;-72
2021/11/01 03:57:31;;;;;;;;;;;;;;;14.99;79.33;99299.59;1047418;28;716;-72
2021/11/01 03:58:22;;;;;;;;;;;;;;;14.99;79.56;99293.38;1046311;28;856;-72
2021/11/01 03:59:12;;;;;;;;;;;;;;;14.99;79.60;99293.38;1045791;28;652;-72
2021/11/01 04:00:04;;;;;;;;;;;;;;;14.99;79.34;99298.75;1046227;28;843;-72
2021/11/01 04:00:55;;;;;;;;;;;;;;;14.99;79.63;99298.75;1042929;28;753;-72
2021/11/01 04:01:46;;;;;;;;;;;;;;;14.98;79.58;99297.06;1042400;28;746;-72
2021/11/01 04:02:37;;;;;;;;;;;;;;;14.98;79.40;99300.59;1046489;28;992;-72
2021/11/01 04:03:27;;;;;;;;;;;;;;;14.98;79.13;99299.75;1045677;28;718;-71
2021/11/01 04:04:18;;;;;;;;;;;;;;;14.98;79.49;99291.72;1045623;28;1002;-71
2021/11/01 04:05:08;;;;;;;;;;;;;;;14.98;79.38;99295.22;1045671;28;665;-71
2021/11/01 04:06:03;;;;;;;;;;;;;;;14.98;79.12;99297.91;1046048;28;610;-70
2021/11/01 04:06:53;;;;;;;;;;;;;;;14.99;79.28;99301.44;1045664;28;841;-71
2021/11/01 04:07:44;;;;;;;;;;;;;;;14.98;79.17;99297.06;1045692;28;772;-70
2021/11/01 04:08:36;;;;;;;;;;;;;;;14.98;78.88;99305.13;1045619;28;815;-69
2021/11/01 04:09:26;;;;;;;;;;;;;;;14.98;79.12;99294.38;1045625;28;724;-69
2021/11/01 04:10:17;;;;;;;;;;;;;;;14.98;79.44;99297.06;1045493;28;622;-69
2021/11/01 04:11:07;;;;;;;;;;;;;;;14.96;79.04;99296.41;1046221;28;913;-70
2021/11/01 04:11:57;;;;;;;;;;;;;;;14.96;79.56;99294.56;1042937;28;1593;-70
2021/11/01 04:12:48;;;;;;;;;;;;;;;14.96;79.10;99301.75;1042889;28;831;-70
2021/11/01 04:13:40;;;;;;;;;;;;;;;14.97;78.96;99301.59;1046576;28;704;-70
2021/11/01 04:14:37;;;;;;;;;;;;;;;14.97;79.03;99298.06;1046038;28;728;-70
2021/11/01 04:15:28;;;;;;;;;;;;;;;14.96;79.23;99301.75;1045737;28;688;-71
2021/11/01 04:16:21;;;;;;;;;;;;;;;14.97;79.42;99300.75;1046190;28;618;-71
2021/11/01 04:17:20;;;;;;;;;;;;;;;14.97;79.09;99309.66;1045523;28;842;-71
2021/11/01 04:18:13;;;;;;;;;;;;;;;14.95;79.34;99300.91;1045641;28;706;-70
2021/11/01 04:20:23;;;;;;;;;;;;;;;14.96;79.55;99299.06;1047642;28;1864;-69
2021/11/01 04:21:13;;;;;;;;;;;;;;;14.96;79.36;99297.25;1049695;28;866;-69
2021/11/01 04:22:04;;;;;;;;;;;;;;;14.97;79.51;99301.59;1049708;28;692;-70
2021/11/01 04:23:06;;;;;;;;;;;;;;;14.96;78.92;99301.75;1049519;28;816;-70
2021/11/01 04:23:59;;;;;;;;;;;;;;;14.97;79.60;99300.75;1049788;28;708;-69
2021/11/01 04:24:50;;;;;;;;;;;;;;;14.95;79.20;99303.59;1049682;28;755;-70
2021/11/01 04:25:40;;;;;;;;;;;;;;;14.95;79.31;99300.91;1049635;28;1051;-70
2021/11/01 04:26:31;;;;;;;;;;;;;;;14.95;78.82;99303.59;1049814;28;929;-69
2021/11/01 04:27:22;;;;;;;;;;;;;;;14.96;79.16;99304.44;1048979;28;721;-69
2021/11/01 04:28:13;;;;;;;;;;;;;;;14.96;79.28;99304.44;1049811;28;889;-69
2021/11/01 04:29:07;;;;;;;;;;;;;;;14.94;79.00;99300.09;1049900;28;641;-69
2021/11/01 04:29:59;;;;;;;;;;;;;;;14.93;78.72;99290.34;1049766;28;692;-69
2021/11/01 04:30:55;;;;;;;;;;;;;;;14.94;79.24;99307.28;1049763;28;748;-67
2021/11/01 04:31:53;;;;;;;;;;;;;;;14.93;79.51;99294.88;1049560;28;874;-68
2021/11/01 04:32:44;;;;;;;;;;;;;;;14.93;79.10;99303.78;1049741;28;754;-69
2021/11/01 04:33:35;;;;;;;;;;;;;;;14.93;79.44;99298.41;1049533;28;810;-67
2021/11/01 04:35:28;;;;;;;;;;;;;;;14.91;79.54;99300.41;1050701;28;1809;-67
2021/11/01 04:36:18;;;;;;;;;;;;;;;14.93;79.51;99300.25;1049756;28;724;-67
2021/11/01 04:37:09;;;;;;;;;;;;;;;14.92;79.20;99296.72;1049576;28;695;-67
2021/11/01 04:39:54;;;;;;;;;;;;;;;14.92;79.00;99294.03;1050781;28;708;-67
2021/11/01 04:41:57;;;;;;;;;;;;;;;14.93;79.31;99294.88;1046573;28;689;-68